createdAt,value
2022-11-29T00:01:45.098Z,4.00
2022-11-29T00:04:13.826Z,4.00
2022-11-29T00:06:43.938Z,4.00
2022-11-29T00:09:14.506Z,4.00
2022-11-29T00:12:01.265Z,3.90
2022-11-29T00:14:30.639Z,3.90
2022-11-29T00:17:02.777Z,3.80
2022-11-29T00:19:32.486Z,3.70
2022-11-29T00:22:03.456Z,3.70
2022-11-29T00:24:33.126Z,3.70
2022-11-29T00:27:02.878Z,3.70
2022-11-29T00:29:32.038Z,3.80
2022-11-29T00:32:01.406Z,3.70
2022-11-29T00:34:30.115Z,3.70
2022-11-29T00:36:58.981Z,3.80
2022-11-29T00:39:29.333Z,3.70
2022-11-29T00:41:57.996Z,3.60
2022-11-29T00:44:26.712Z,3.60
2022-11-29T00:46:55.383Z,3.60
2022-11-29T00:49:24.083Z,3.60
2022-11-29T00:51:52.773Z,3.50
2022-11-29T00:54:21.760Z,3.50
2022-11-29T00:56:51.931Z,3.30
2022-11-29T00:59:20.718Z,3.40
2022-11-29T01:01:49.521Z,3.30
2022-11-29T01:04:18.581Z,3.30
2022-11-29T01:06:47.744Z,3.30
2022-11-29T01:09:16.545Z,3.40
2022-11-29T01:11:45.234Z,3.40
2022-11-29T01:14:15.626Z,3.40
2022-11-29T01:16:44.445Z,3.50
2022-11-29T01:19:13.229Z,3.40
2022-11-29T01:21:41.906Z,3.40
2022-11-29T01:24:10.595Z,3.30
2022-11-29T01:26:39.365Z,3.30
2022-11-29T01:29:08.062Z,3.40
2022-11-29T01:31:38.448Z,3.40
2022-11-29T01:34:08.485Z,3.40
2022-11-29T01:36:37.484Z,3.40
2022-11-29T01:39:07.716Z,3.50
2022-11-29T01:41:38.011Z,3.60
2022-11-29T01:44:28.122Z,3.50
2022-11-29T01:46:59.026Z,3.60
2022-11-29T01:49:33.599Z,3.70
2022-11-29T01:52:06.926Z,3.70
2022-11-29T01:54:41.013Z,3.60
2022-11-29T01:57:11.029Z,3.60
2022-11-29T01:59:43.306Z,3.70
2022-11-29T02:02:16.776Z,3.90
2022-11-29T02:04:47.670Z,3.80
2022-11-29T02:07:16.862Z,3.80
2022-11-29T02:09:45.888Z,3.90
2022-11-29T02:12:25.432Z,3.70
2022-11-29T02:15:16.321Z,3.60
2022-11-29T02:18:02.709Z,3.60
2022-11-29T02:21:02.208Z,3.60
2022-11-29T02:23:57.501Z,3.40
2022-11-29T02:26:48.355Z,3.40
2022-11-29T02:30:04.425Z,3.30
2022-11-29T02:33:02.206Z,3.30
2022-11-29T02:35:48.002Z,3.50
2022-11-29T02:38:25.624Z,3.40
2022-11-29T02:41:09.332Z,3.50
2022-11-29T02:44:13.708Z,3.60
2022-11-29T02:46:58.356Z,3.70
2022-11-29T02:49:43.354Z,3.60
2022-11-29T02:52:18.132Z,3.60
2022-11-29T02:54:53.724Z,3.60
2022-11-29T02:57:30.974Z,3.40
2022-11-29T03:00:05.335Z,3.40
2022-11-29T03:02:37.578Z,3.40
2022-11-29T03:05:17.339Z,3.40
2022-11-29T03:07:54.960Z,3.40
2022-11-29T03:10:33.823Z,3.40
2022-11-29T03:13:10.113Z,3.40
2022-11-29T03:15:46.153Z,3.40
2022-11-29T03:18:29.864Z,3.50
2022-11-29T03:21:10.399Z,3.50
2022-11-29T03:23:45.001Z,3.50
2022-11-29T03:26:18.905Z,3.50
2022-11-29T03:28:52.530Z,3.50
2022-11-29T03:31:28.682Z,3.60
2022-11-29T03:34:11.234Z,3.50
2022-11-29T03:36:49.422Z,3.60
2022-11-29T03:39:20.930Z,3.50
2022-11-29T03:41:54.691Z,3.40
2022-11-29T03:44:28.453Z,3.50
2022-11-29T03:47:01.579Z,3.50
2022-11-29T03:49:35.827Z,3.50
2022-11-29T03:52:13.820Z,3.40
2022-11-29T03:54:54.754Z,3.40
2022-11-29T03:57:32.687Z,3.50
2022-11-29T04:00:08.366Z,3.50
2022-11-29T04:03:04.136Z,3.50
2022-11-29T04:06:11.184Z,3.60
2022-11-29T04:09:21.557Z,3.60
2022-11-29T04:12:31.172Z,3.50
2022-11-29T04:15:32.225Z,3.60
2022-11-29T04:18:28.750Z,3.60
2022-11-29T04:21:31.880Z,3.60
2022-11-29T04:24:32.625Z,3.60
2022-11-29T04:27:40.542Z,3.60
2022-11-29T04:30:14.911Z,3.60
2022-11-29T04:33:20.364Z,3.60
2022-11-29T04:36:24.511Z,3.60
2022-11-29T04:39:28.855Z,3.60
2022-11-29T04:42:25.812Z,3.60
2022-11-29T04:45:12.323Z,3.60
2022-11-29T04:47:52.551Z,3.60
2022-11-29T04:50:43.493Z,3.60
2022-11-29T04:53:31.703Z,3.50
2022-11-29T04:56:14.972Z,3.70
2022-11-29T04:58:53.202Z,3.70
2022-11-29T05:01:28.164Z,3.70
2022-11-29T05:04:04.357Z,3.60
2022-11-29T05:06:40.804Z,3.60
2022-11-29T05:09:20.395Z,3.60
2022-11-29T05:12:02.823Z,3.60
2022-11-29T05:14:50.298Z,3.50
2022-11-29T05:17:32.749Z,3.60
2022-11-29T05:20:25.962Z,3.60
2022-11-29T05:23:10.063Z,3.60
2022-11-29T05:25:49.482Z,3.60
2022-11-29T05:28:25.971Z,3.60
2022-11-29T05:31:28.122Z,3.60
2022-11-29T05:34:33.369Z,3.80
2022-11-29T05:37:15.057Z,3.70
2022-11-29T05:39:58.809Z,3.60
2022-11-29T05:43:02.775Z,3.80
2022-11-29T05:45:37.158Z,3.70
2022-11-29T05:48:15.714Z,3.70
2022-11-29T05:50:49.907Z,3.80
2022-11-29T05:53:24.975Z,3.80
2022-11-29T05:56:04.079Z,3.80
2022-11-29T05:58:44.876Z,3.70
2022-11-29T06:01:24.275Z,3.70
2022-11-29T06:04:00.687Z,3.60
2022-11-29T06:06:36.851Z,3.70
2022-11-29T06:09:14.168Z,3.70
2022-11-29T06:11:48.187Z,3.70
2022-11-29T06:14:34.239Z,3.70
2022-11-29T06:17:26.063Z,3.70
2022-11-29T06:20:11.463Z,3.70
2022-11-29T06:22:58.129Z,3.70
2022-11-29T06:25:42.582Z,3.80
2022-11-29T06:28:28.838Z,3.70
2022-11-29T06:31:03.903Z,3.60
2022-11-29T06:33:39.977Z,3.60
2022-11-29T06:36:25.656Z,3.60
2022-11-29T06:38:56.459Z,3.60
2022-11-29T06:41:26.444Z,3.70
2022-11-29T06:43:55.816Z,3.70
2022-11-29T06:46:36.593Z,3.70
2022-11-29T06:49:13.455Z,3.70
2022-11-29T06:51:55.847Z,3.70
2022-11-29T06:54:49.197Z,3.70
2022-11-29T06:57:27.437Z,3.70
2022-11-29T07:00:11.178Z,3.80
2022-11-29T07:02:54.978Z,3.80
2022-11-29T07:05:28.937Z,3.90
2022-11-29T07:08:03.856Z,4.00
2022-11-29T07:10:36.563Z,3.90
2022-11-29T07:13:06.277Z,4.00
2022-11-29T07:15:36.837Z,4.10
2022-11-29T07:18:20.088Z,4.10
2022-11-29T07:20:58.156Z,4.00
2022-11-29T07:23:36.318Z,4.10
2022-11-29T07:26:18.320Z,4.10
2022-11-29T07:29:01.036Z,4.10
2022-11-29T07:31:39.618Z,4.10
2022-11-29T07:34:19.890Z,4.20
2022-11-29T07:36:59.198Z,4.20
2022-11-29T07:39:41.795Z,4.10
2022-11-29T07:42:18.197Z,4.10
2022-11-29T07:44:57.410Z,4.10
2022-11-29T07:47:27.494Z,4.20
2022-11-29T07:49:57.692Z,4.20
2022-11-29T07:52:26.440Z,4.30
2022-11-29T07:54:56.999Z,4.40
2022-11-29T07:57:25.767Z,4.30
2022-11-29T07:59:54.364Z,4.40
2022-11-29T08:02:29.227Z,4.50
2022-11-29T08:04:58.021Z,4.60
2022-11-29T08:07:27.099Z,4.70
2022-11-29T08:09:57.291Z,4.70
2022-11-29T08:12:26.358Z,4.80
2022-11-29T08:14:55.008Z,4.70
2022-11-29T08:17:23.612Z,4.90
2022-11-29T08:19:52.285Z,4.80
2022-11-29T08:22:21.158Z,5.00
2022-11-29T08:24:49.876Z,5.00
2022-11-29T08:27:19.924Z,4.90
2022-11-29T08:29:48.715Z,4.80
2022-11-29T08:32:17.553Z,4.80
2022-11-29T08:34:47.144Z,4.90
2022-11-29T08:37:17.657Z,4.90
2022-11-29T08:39:46.939Z,4.80
2022-11-29T08:42:16.307Z,4.80
2022-11-29T08:44:48.074Z,4.90
2022-11-29T08:47:34.398Z,4.90
2022-11-29T08:50:03.733Z,4.90
2022-11-29T08:52:50.606Z,4.90
2022-11-29T08:55:20.378Z,4.90
2022-11-29T08:57:49.218Z,4.90
2022-11-29T09:00:21.438Z,4.90
2022-11-29T09:02:50.235Z,5.00
2022-11-29T09:05:19.097Z,5.10
2022-11-29T09:07:47.765Z,5.30
2022-11-29T09:10:16.453Z,5.30
2022-11-29T09:12:45.216Z,5.40
2022-11-29T09:15:14.698Z,5.40
2022-11-29T09:17:45.357Z,5.50
2022-11-29T09:20:15.116Z,5.60
2022-11-29T09:22:43.904Z,5.60
2022-11-29T09:25:12.903Z,5.60
2022-11-29T09:27:42.302Z,5.60
2022-11-29T09:30:12.896Z,5.60
2022-11-29T09:32:41.760Z,5.50
2022-11-29T09:35:11.986Z,5.50
2022-11-29T09:37:44.576Z,5.50
2022-11-29T09:40:20.547Z,5.70
2022-11-29T09:42:59.373Z,5.60
2022-11-29T09:45:31.937Z,5.60
2022-11-29T09:48:27.846Z,5.60
2022-11-29T09:51:12.830Z,5.60
2022-11-29T09:53:59.000Z,5.50
2022-11-29T09:56:34.827Z,5.50
2022-11-29T09:59:07.437Z,5.40
2022-11-29T10:01:40.548Z,5.40
2022-11-29T10:04:15.438Z,5.50
2022-11-29T10:06:51.756Z,5.50
2022-11-29T10:09:30.879Z,5.40
2022-11-29T10:12:15.682Z,5.60
2022-11-29T10:14:52.107Z,5.80
2022-11-29T10:17:31.526Z,5.90
2022-11-29T10:20:05.816Z,6.00
2022-11-29T10:22:43.983Z,5.90
2022-11-29T10:25:23.018Z,6.00
2022-11-29T10:27:51.698Z,6.20
2022-11-29T10:30:21.078Z,6.30
2022-11-29T10:32:56.796Z,6.40
2022-11-29T10:35:26.296Z,6.40
2022-11-29T10:38:30.197Z,6.40
2022-11-29T10:40:52.736Z,6.40
2022-11-29T10:43:21.577Z,6.50
2022-11-29T10:45:56.336Z,6.60
2022-11-29T10:48:29.023Z,6.50
2022-11-29T10:50:57.821Z,6.40
2022-11-29T10:53:31.997Z,6.40
2022-11-29T10:56:05.975Z,6.30
2022-11-29T10:58:35.387Z,6.30
2022-11-29T11:01:07.827Z,6.30
2022-11-29T11:03:39.600Z,6.20
2022-11-29T11:06:16.091Z,6.20
2022-11-29T11:08:51.173Z,6.20
2022-11-29T11:11:30.738Z,6.40
2022-11-29T11:14:01.053Z,6.50
2022-11-29T11:16:35.617Z,6.70
2022-11-29T11:19:28.065Z,6.70
2022-11-29T11:21:57.967Z,6.60
2022-11-29T11:24:33.267Z,6.60
2022-11-29T11:27:02.897Z,6.70
2022-11-29T11:29:36.672Z,6.80
2022-11-29T11:32:16.461Z,6.80
2022-11-29T11:34:58.544Z,6.80
2022-11-29T11:37:29.942Z,6.90
2022-11-29T11:40:02.462Z,6.80
2022-11-29T11:42:38.291Z,6.60
2022-11-29T11:45:26.349Z,6.60
2022-11-29T11:47:58.138Z,6.70
2022-11-29T11:50:32.819Z,6.60
2022-11-29T11:53:06.820Z,6.60
2022-11-29T11:55:41.038Z,6.60
2022-11-29T11:58:19.857Z,6.70
2022-11-29T12:01:07.129Z,6.70
2022-11-29T12:03:51.291Z,6.80
2022-11-29T12:06:38.502Z,6.90
2022-11-29T12:09:18.976Z,7.00
2022-11-29T12:11:56.594Z,7.20
2022-11-29T12:14:34.231Z,7.20
2022-11-29T12:17:19.674Z,7.20
2022-11-29T12:20:01.577Z,7.30
2022-11-29T12:22:37.283Z,7.30
2022-11-29T12:25:12.998Z,7.20
2022-11-29T12:27:43.198Z,7.20
2022-11-29T12:30:15.906Z,7.30
2022-11-29T12:33:06.216Z,7.40
2022-11-29T12:35:50.700Z,7.50
2022-11-29T12:38:32.715Z,7.50
2022-11-29T12:41:15.096Z,7.60
2022-11-29T12:43:55.458Z,7.60
2022-11-29T12:46:26.549Z,7.60
2022-11-29T12:49:02.754Z,7.70
2022-11-29T12:51:42.007Z,7.70
2022-11-29T12:54:23.746Z,7.70
2022-11-29T12:57:02.499Z,7.60
2022-11-29T12:59:47.199Z,7.50
2022-11-29T13:02:32.501Z,7.40
2022-11-29T13:05:06.539Z,7.40
2022-11-29T13:07:45.561Z,7.40
2022-11-29T13:10:30.424Z,7.50
2022-11-29T13:13:01.224Z,7.40
2022-11-29T13:15:38.324Z,7.40
2022-11-29T13:18:16.557Z,7.50
2022-11-29T13:20:52.581Z,7.50
2022-11-29T13:23:46.011Z,7.40
2022-11-29T13:26:16.824Z,7.30
2022-11-29T13:28:50.924Z,7.30
2022-11-29T13:31:24.061Z,7.20
2022-11-29T13:34:00.329Z,7.10
2022-11-29T13:36:41.018Z,7.20
2022-11-29T13:39:31.458Z,7.10
2022-11-29T13:42:09.297Z,7.10
2022-11-29T13:44:46.617Z,7.00
2022-11-29T13:47:18.676Z,6.90
2022-11-29T13:49:59.424Z,6.90
2022-11-29T13:52:39.801Z,6.90
2022-11-29T13:55:23.797Z,7.00
2022-11-29T13:58:15.397Z,6.90
2022-11-29T14:00:52.302Z,7.00
2022-11-29T14:03:32.057Z,7.10
2022-11-29T14:06:12.044Z,7.10
2022-11-29T14:09:17.083Z,7.00
2022-11-29T14:11:39.164Z,7.00
2022-11-29T14:14:11.710Z,7.00
2022-11-29T14:16:48.160Z,7.00
2022-11-29T14:19:33.023Z,7.10
2022-11-29T14:22:30.555Z,6.90
2022-11-29T14:25:49.738Z,6.90
2022-11-29T14:28:30.780Z,7.00
2022-11-29T14:31:02.107Z,6.90
2022-11-29T14:33:52.597Z,6.80
2022-11-29T14:36:48.553Z,6.60
2022-11-29T14:39:31.642Z,6.50
2022-11-29T14:42:17.578Z,6.40
2022-11-29T14:44:52.567Z,6.40
2022-11-29T14:47:30.003Z,6.30
2022-11-29T14:50:01.227Z,6.30
2022-11-29T14:52:37.400Z,6.30
2022-11-29T14:55:09.628Z,6.30
2022-11-29T14:58:12.576Z,6.30
2022-11-29T15:01:10.943Z,6.40
2022-11-29T15:03:49.846Z,6.40
2022-11-29T15:06:29.269Z,6.40
2022-11-29T15:09:05.020Z,6.50
2022-11-29T15:11:49.751Z,6.70
2022-11-29T15:14:26.342Z,6.70
2022-11-29T15:17:09.398Z,6.60
2022-11-29T15:20:01.471Z,6.60
2022-11-29T15:22:37.682Z,6.50
2022-11-29T15:25:15.066Z,6.40
2022-11-29T15:27:53.258Z,6.40
2022-11-29T15:30:29.965Z,6.40
2022-11-29T15:33:00.004Z,6.50
2022-11-29T15:35:29.018Z,6.50
2022-11-29T15:37:58.312Z,6.40
2022-11-29T15:40:35.832Z,6.50
2022-11-29T15:43:16.747Z,6.50
2022-11-29T15:45:50.094Z,6.40
2022-11-29T15:48:22.503Z,6.40
2022-11-29T15:50:57.407Z,6.50
2022-11-29T15:53:31.429Z,6.50
2022-11-29T15:56:05.084Z,6.50
2022-11-29T15:58:36.301Z,6.30
2022-11-29T16:01:05.859Z,6.20
2022-11-29T16:03:38.016Z,6.10
2022-11-29T16:06:10.664Z,6.10
2022-11-29T16:08:43.723Z,6.00
2022-11-29T16:11:19.488Z,6.00
2022-11-29T16:14:05.228Z,6.00
2022-11-29T16:16:35.749Z,5.90
2022-11-29T16:19:19.932Z,5.90
2022-11-29T16:22:01.288Z,5.90
2022-11-29T16:24:30.208Z,5.90
2022-11-29T16:27:03.416Z,5.80
2022-11-29T16:29:36.011Z,5.80
2022-11-29T16:32:15.892Z,5.80
2022-11-29T16:34:45.858Z,5.80
2022-11-29T16:37:21.618Z,5.70
2022-11-29T16:39:54.524Z,5.70
2022-11-29T16:42:27.689Z,5.60
2022-11-29T16:45:06.773Z,5.60
2022-11-29T16:47:52.936Z,5.60
2022-11-29T16:50:24.780Z,5.70
2022-11-29T16:52:56.821Z,5.70
2022-11-29T16:55:26.858Z,5.70
2022-11-29T16:57:57.722Z,5.70
2022-11-29T17:00:32.488Z,5.70
2022-11-29T17:03:02.200Z,5.60
2022-11-29T17:05:32.486Z,5.70
2022-11-29T17:08:02.515Z,5.80
2022-11-29T17:10:32.507Z,6.00
2022-11-29T17:13:04.640Z,6.00
2022-11-29T17:15:33.375Z,5.90
2022-11-29T17:18:02.206Z,5.90
2022-11-29T17:20:31.116Z,5.70
2022-11-29T17:22:59.856Z,5.70
2022-11-29T17:25:29.732Z,5.60
2022-11-29T17:27:58.692Z,5.60
2022-11-29T17:30:32.539Z,5.40
2022-11-29T17:33:01.532Z,5.40
2022-11-29T17:35:30.625Z,5.20
2022-11-29T17:38:01.528Z,5.10
2022-11-29T17:40:33.407Z,5.10
2022-11-29T17:43:04.147Z,5.10
2022-11-29T17:45:35.478Z,5.00
2022-11-29T17:48:04.979Z,5.00
2022-11-29T17:50:34.584Z,5.00
2022-11-29T17:53:03.586Z,4.90
2022-11-29T17:55:32.517Z,5.00
2022-11-29T17:58:02.745Z,4.90
2022-11-29T18:00:33.692Z,4.90
2022-11-29T18:03:05.843Z,4.70
2022-11-29T18:05:35.426Z,4.70
2022-11-29T18:08:06.033Z,4.80
2022-11-29T18:10:36.278Z,4.90
2022-11-29T18:13:05.613Z,4.90
2022-11-29T18:15:34.905Z,5.00
2022-11-29T18:18:05.444Z,4.80
2022-11-29T18:20:35.649Z,4.90
2022-11-29T18:23:08.087Z,4.90
2022-11-29T18:25:39.512Z,4.90
2022-11-29T18:28:12.296Z,5.00
2022-11-29T18:30:44.574Z,4.90
2022-11-29T18:33:15.579Z,4.70
2022-11-29T18:35:49.421Z,4.60
2022-11-29T18:38:18.935Z,4.70
2022-11-29T18:40:49.518Z,4.60
2022-11-29T18:43:19.169Z,4.60
2022-11-29T18:45:48.932Z,4.60
2022-11-29T18:48:19.263Z,4.50
2022-11-29T18:50:48.866Z,4.60
2022-11-29T18:53:18.579Z,4.60
2022-11-29T18:55:47.779Z,4.70
2022-11-29T18:58:18.555Z,4.60
2022-11-29T19:00:48.833Z,4.60
2022-11-29T19:03:19.824Z,4.50
2022-11-29T19:05:53.884Z,4.50
2022-11-29T19:08:23.287Z,4.40
2022-11-29T19:10:53.776Z,4.30
2022-11-29T19:13:23.255Z,4.20
2022-11-29T19:15:56.436Z,4.10
2022-11-29T19:18:29.613Z,4.00
2022-11-29T19:21:06.986Z,4.00
2022-11-29T19:23:36.372Z,3.90
2022-11-29T19:26:08.486Z,3.70
2022-11-29T19:28:39.433Z,3.70
2022-11-29T19:31:09.583Z,3.80
2022-11-29T19:33:42.177Z,3.90
2022-11-29T19:36:18.272Z,3.70
2022-11-29T19:38:53.427Z,3.50
2022-11-29T19:41:25.415Z,3.30
2022-11-29T19:43:56.611Z,3.30
2022-11-29T19:46:29.155Z,3.20
2022-11-29T19:49:01.333Z,3.30
2022-11-29T19:51:32.008Z,3.20
2022-11-29T19:54:02.811Z,3.20
2022-11-29T19:56:33.665Z,3.20
2022-11-29T19:59:03.217Z,3.10
2022-11-29T20:01:40.117Z,3.10
2022-11-29T20:04:13.637Z,3.10
2022-11-29T20:06:44.981Z,3.00
2022-11-29T20:09:14.964Z,3.00
2022-11-29T20:11:45.583Z,3.10
2022-11-29T20:14:16.220Z,3.10
2022-11-29T20:16:46.691Z,3.20
2022-11-29T20:19:19.144Z,3.10
2022-11-29T20:21:49.939Z,3.00
2022-11-29T20:24:20.507Z,3.00
2022-11-29T20:26:51.087Z,3.00
2022-11-29T20:29:22.242Z,3.00
2022-11-29T20:31:51.750Z,2.80
2022-11-29T20:34:24.220Z,2.60
2022-11-29T20:37:18.689Z,2.60
2022-11-29T20:39:53.379Z,2.60
2022-11-29T20:42:48.888Z,2.50
2022-11-29T20:45:19.165Z,2.40
2022-11-29T20:47:55.032Z,2.20
2022-11-29T20:50:29.346Z,2.20
2022-11-29T20:53:14.901Z,2.10
2022-11-29T20:55:47.887Z,2.00
2022-11-29T20:58:18.897Z,2.00
2022-11-29T21:00:48.778Z,1.90
2022-11-29T21:03:18.398Z,1.90
2022-11-29T21:05:49.708Z,1.90
2022-11-29T21:08:21.540Z,1.80
2022-11-29T21:10:51.329Z,1.80
2022-11-29T21:13:22.313Z,1.80
2022-11-29T21:15:52.254Z,1.70
2022-11-29T21:18:26.347Z,1.80
2022-11-29T21:21:05.248Z,1.70
2022-11-29T21:23:46.645Z,1.60
2022-11-29T21:26:18.178Z,1.50
2022-11-29T21:28:57.971Z,1.50
2022-11-29T21:31:27.332Z,1.50
2022-11-29T21:33:56.671Z,1.50
2022-11-29T21:36:27.843Z,1.50
2022-11-29T21:39:03.593Z,1.50
2022-11-29T21:41:39.292Z,1.40
2022-11-29T21:44:08.985Z,1.30
2022-11-29T21:46:39.731Z,1.40
2022-11-29T21:49:09.217Z,1.40
2022-11-29T21:51:40.161Z,1.30
2022-11-29T21:54:13.294Z,1.30
2022-11-29T21:56:58.969Z,1.50
2022-11-29T21:59:34.112Z,1.50
2022-11-29T22:02:14.439Z,1.40
2022-11-29T22:04:47.816Z,1.30
2022-11-29T22:07:20.934Z,1.20
2022-11-29T22:09:52.420Z,1.20
2022-11-29T22:12:34.243Z,1.20
2022-11-29T22:15:03.907Z,1.20
2022-11-29T22:17:33.261Z,1.20
2022-11-29T22:20:02.431Z,1.20
2022-11-29T22:22:32.573Z,1.20
2022-11-29T22:25:01.194Z,1.10
2022-11-29T22:27:29.865Z,1.20
2022-11-29T22:29:58.530Z,1.20
2022-11-29T22:32:27.343Z,1.20
2022-11-29T22:34:55.996Z,1.10
2022-11-29T22:37:24.830Z,1.20
2022-11-29T22:39:54.945Z,1.20
2022-11-29T22:42:23.522Z,1.10
2022-11-29T22:44:52.404Z,1.10
2022-11-29T22:47:21.178Z,1.10
2022-11-29T22:49:50.523Z,1.10
2022-11-29T22:52:19.062Z,1.10
2022-11-29T22:54:47.946Z,1.10
2022-11-29T22:57:18.241Z,1.10
2022-11-29T22:59:47.002Z,1.10
2022-11-29T23:02:15.716Z,1.10
2022-11-29T23:04:45.834Z,1.00
2022-11-29T23:07:14.650Z,0.90
2022-11-29T23:09:43.322Z,1.00
2022-11-29T23:12:12.007Z,1.00
2022-11-29T23:14:42.067Z,1.00
2022-11-29T23:17:10.612Z,0.90
2022-11-29T23:19:39.304Z,0.90
2022-11-29T23:22:07.969Z,0.90
2022-11-29T23:24:36.659Z,0.90
2022-11-29T23:27:05.436Z,0.90
2022-11-29T23:29:34.121Z,0.90
2022-11-29T23:32:04.361Z,0.90
2022-11-29T23:34:32.957Z,0.90
2022-11-29T23:37:01.641Z,0.90
2022-11-29T23:39:30.379Z,0.90
2022-11-29T23:41:58.975Z,0.90
2022-11-29T23:44:27.618Z,0.90
2022-11-29T23:46:56.331Z,0.90
2022-11-29T23:49:26.384Z,0.80
2022-11-29T23:51:55.055Z,0.90
2022-11-29T23:54:24.830Z,0.90
2022-11-29T23:56:53.550Z,0.90
2022-11-29T23:59:22.350Z,0.80
